createdAt,value
2017-12-25T00:01:15.197Z,1.60
2017-12-25T00:03:42.683Z,1.70
2017-12-25T00:06:10.119Z,1.73
2017-12-25T00:08:37.560Z,2.10
2017-12-25T00:11:05.035Z,1.83
2017-12-25T00:13:32.482Z,1.20
2017-12-25T00:15:59.908Z,1.43
2017-12-25T00:18:28.124Z,1.93
2017-12-25T00:20:55.564Z,1.90
2017-12-25T00:23:23.004Z,1.90
2017-12-25T00:25:50.450Z,1.80
2017-12-25T00:28:18.653Z,1.80
2017-12-25T00:30:46.088Z,1.60
2017-12-25T00:33:14.323Z,1.67
2017-12-25T00:35:41.756Z,1.73
2017-12-25T00:38:09.655Z,1.57
2017-12-25T00:40:37.088Z,1.73
2017-12-25T00:43:04.523Z,1.37
2017-12-25T00:45:31.962Z,1.50
2017-12-25T00:47:59.405Z,1.60
2017-12-25T00:50:27.701Z,1.63
2017-12-25T00:52:55.197Z,2.00
2017-12-25T00:55:22.631Z,1.13
2017-12-25T00:57:50.064Z,1.30
2017-12-25T01:00:17.508Z,1.07
2017-12-25T01:02:45.715Z,0.67
2017-12-25T01:05:13.154Z,1.20
2017-12-25T01:07:40.592Z,1.20
2017-12-25T01:10:08.798Z,1.50
2017-12-25T01:12:36.261Z,1.00
2017-12-25T01:15:03.826Z,1.00
2017-12-25T01:17:31.281Z,1.17
2017-12-25T01:19:58.712Z,1.27
2017-12-25T01:22:26.224Z,0.90
2017-12-25T01:24:53.652Z,1.10
2017-12-25T01:27:21.104Z,1.10
2017-12-25T01:29:48.555Z,1.00
2017-12-25T01:32:16.005Z,1.43
2017-12-25T01:34:43.431Z,1.10
2017-12-25T01:37:11.642Z,1.20
2017-12-25T01:39:39.081Z,1.20
2017-12-25T01:42:06.517Z,1.20
2017-12-25T01:44:34.717Z,0.90
2017-12-25T01:47:06.092Z,1.40
2017-12-25T01:49:33.521Z,0.80
2017-12-25T01:52:00.964Z,1.30
2017-12-25T01:54:29.167Z,1.40
2017-12-25T01:57:02.353Z,1.60
2017-12-25T01:59:30.683Z,1.27
2017-12-25T02:01:59.908Z,0.80
2017-12-25T02:04:27.336Z,0.70
2017-12-25T02:07:06.741Z,0.77
2017-12-25T02:09:34.178Z,0.90
2017-12-25T02:12:01.625Z,1.10
2017-12-25T02:14:29.058Z,0.60
2017-12-25T02:16:57.251Z,0.87
2017-12-25T02:19:24.691Z,1.00
2017-12-25T02:21:52.896Z,1.03
2017-12-25T02:24:20.336Z,1.50
2017-12-25T02:26:47.776Z,1.03
2017-12-25T02:29:15.980Z,1.20
2017-12-25T02:31:43.419Z,1.33
2017-12-25T02:34:10.864Z,1.00
2017-12-25T02:36:39.068Z,1.00
2017-12-25T02:39:06.513Z,0.97
2017-12-25T02:41:33.943Z,1.00
2017-12-25T02:44:02.148Z,1.00
2017-12-25T02:46:29.595Z,0.93
2017-12-25T02:48:57.028Z,0.93
2017-12-25T02:51:25.235Z,0.80
2017-12-25T02:53:52.674Z,0.90
2017-12-25T02:56:20.875Z,1.00
2017-12-25T02:58:48.314Z,0.67
2017-12-25T03:01:15.754Z,1.10
2017-12-25T03:03:43.957Z,0.90
2017-12-25T03:06:11.403Z,0.80
2017-12-25T03:08:38.839Z,0.70
2017-12-25T03:11:07.053Z,0.70
2017-12-25T03:13:34.491Z,0.60
2017-12-25T03:16:01.954Z,0.87
2017-12-25T03:18:29.388Z,0.73
2017-12-25T03:20:57.594Z,0.80
2017-12-25T03:23:25.042Z,0.63
2017-12-25T03:25:52.475Z,0.70
2017-12-25T03:28:19.923Z,0.50
2017-12-25T03:30:48.121Z,0.70
2017-12-25T03:33:15.568Z,0.97
2017-12-25T03:35:43.006Z,0.70
2017-12-25T03:38:11.219Z,0.73
2017-12-25T03:40:38.660Z,0.63
2017-12-25T03:43:06.099Z,0.50
2017-12-25T03:45:34.305Z,0.60
2017-12-25T03:48:01.754Z,0.80
2017-12-25T03:50:29.187Z,0.90
2017-12-25T03:52:57.443Z,0.83
2017-12-25T03:55:24.876Z,0.63
2017-12-25T03:57:52.312Z,0.47
2017-12-25T04:00:19.760Z,0.60
2017-12-25T04:02:47.204Z,0.67
2017-12-25T04:05:14.652Z,0.70
2017-12-25T04:07:42.856Z,0.60
2017-12-25T04:10:10.311Z,0.80
2017-12-25T04:12:37.735Z,0.70
2017-12-25T04:15:05.175Z,0.60
2017-12-25T04:17:33.377Z,0.83
2017-12-25T04:20:00.824Z,0.80
2017-12-25T04:22:29.023Z,0.70
2017-12-25T04:24:56.470Z,0.83
2017-12-25T04:27:23.903Z,0.80
2017-12-25T04:29:52.116Z,0.90
2017-12-25T04:32:19.560Z,0.90
2017-12-25T04:34:47.020Z,0.67
2017-12-25T04:37:15.204Z,1.30
2017-12-25T04:39:42.644Z,0.90
2017-12-25T04:42:10.092Z,0.90
2017-12-25T04:44:37.524Z,1.10
2017-12-25T04:47:05.727Z,0.87
2017-12-25T04:49:38.917Z,0.80
2017-12-25T04:52:06.356Z,0.77
2017-12-25T04:54:34.558Z,1.40
2017-12-25T04:57:02.012Z,1.10
2017-12-25T04:59:29.444Z,1.07
2017-12-25T05:01:57.653Z,0.73
2017-12-25T05:04:25.088Z,1.00
2017-12-25T05:06:52.536Z,1.00
2017-12-25T05:09:19.972Z,1.00
2017-12-25T05:11:48.171Z,0.93
2017-12-25T05:14:15.608Z,0.63
2017-12-25T05:16:43.820Z,1.10
2017-12-25T05:19:11.255Z,1.03
2017-12-25T05:21:38.704Z,0.90
2017-12-25T05:24:06.912Z,1.10
2017-12-25T05:26:34.367Z,0.90
2017-12-25T05:29:01.811Z,1.50
2017-12-25T05:31:29.245Z,1.33
2017-12-25T05:33:57.456Z,0.77
2017-12-25T05:36:24.899Z,1.00
2017-12-25T05:38:52.352Z,1.67
2017-12-25T05:41:19.789Z,1.10
2017-12-25T05:43:47.993Z,1.23
2017-12-25T05:46:15.431Z,1.17
2017-12-25T05:48:42.907Z,1.50
2017-12-25T05:51:10.344Z,1.40
2017-12-25T05:53:37.780Z,1.17
2017-12-25T05:56:06.039Z,1.30
2017-12-25T05:58:33.420Z,1.60
2017-12-25T06:01:01.634Z,1.27
2017-12-25T06:03:29.081Z,1.60
2017-12-25T06:05:56.520Z,1.77
2017-12-25T06:08:23.957Z,1.53
2017-12-25T06:10:52.169Z,1.70
2017-12-25T06:13:19.603Z,2.00
2017-12-25T06:15:47.050Z,1.67
2017-12-25T06:18:15.245Z,1.00
2017-12-25T06:20:42.689Z,1.77
2017-12-25T06:23:10.130Z,2.00
2017-12-25T06:25:38.329Z,1.57
2017-12-25T06:28:05.768Z,1.70
2017-12-25T06:30:33.968Z,1.63
2017-12-25T06:33:01.409Z,2.07
2017-12-25T06:35:28.847Z,1.97
2017-12-25T06:37:57.064Z,1.90
2017-12-25T06:40:24.505Z,2.10
2017-12-25T06:42:51.948Z,1.40
2017-12-25T06:45:19.391Z,1.80
2017-12-25T06:47:47.593Z,1.87
2017-12-25T06:50:15.039Z,1.00
2017-12-25T06:52:42.480Z,1.47
2017-12-25T06:55:10.687Z,1.50
2017-12-25T06:57:38.122Z,1.27
2017-12-25T07:00:05.570Z,1.30
2017-12-25T07:02:33.780Z,0.90
2017-12-25T07:05:01.233Z,1.23
2017-12-25T07:07:28.667Z,1.27
2017-12-25T07:09:56.111Z,0.90
2017-12-25T07:12:24.318Z,0.60
2017-12-25T07:14:51.774Z,0.60
2017-12-25T07:17:19.215Z,0.70
2017-12-25T07:19:46.661Z,1.20
2017-12-25T07:22:14.861Z,0.70
2017-12-25T07:24:42.309Z,0.60
2017-12-25T07:27:09.742Z,0.83
2017-12-25T07:29:37.949Z,0.77
2017-12-25T07:32:05.389Z,1.00
2017-12-25T07:34:32.831Z,1.00
2017-12-25T07:37:01.034Z,0.73
2017-12-25T07:39:28.468Z,0.73
2017-12-25T07:41:55.917Z,0.60
2017-12-25T07:44:24.116Z,0.70
2017-12-25T07:46:51.557Z,1.03
2017-12-25T07:49:18.992Z,1.30
2017-12-25T07:51:47.203Z,0.70
2017-12-25T07:54:14.640Z,1.67
2017-12-25T07:56:42.079Z,1.60
2017-12-25T07:59:10.282Z,2.40
2017-12-25T08:01:37.765Z,1.43
2017-12-25T08:04:05.916Z,1.63
2017-12-25T08:06:33.363Z,1.57
2017-12-25T08:09:00.800Z,2.07
2017-12-25T08:11:29.003Z,1.47
2017-12-25T08:13:56.438Z,2.47
2017-12-25T08:16:24.644Z,2.13
2017-12-25T08:18:52.084Z,1.83
2017-12-25T08:21:19.519Z,2.00
2017-12-25T08:23:47.728Z,1.80
2017-12-25T08:26:15.163Z,2.07
2017-12-25T08:28:43.361Z,1.03
2017-12-25T08:31:10.795Z,1.33
2017-12-25T08:33:38.241Z,1.90
2017-12-25T08:36:06.444Z,1.30
2017-12-25T08:38:33.897Z,2.23
2017-12-25T08:41:01.339Z,2.00
2017-12-25T08:43:28.777Z,2.00
2017-12-25T08:45:56.985Z,1.97
2017-12-25T08:48:24.425Z,1.77
2017-12-25T08:50:51.868Z,1.77
2017-12-25T08:53:20.104Z,2.00
2017-12-25T08:55:47.539Z,2.90
2017-12-25T08:58:14.968Z,3.37
2017-12-25T09:00:42.413Z,2.67
2017-12-25T09:03:10.613Z,2.40
2017-12-25T09:05:38.056Z,3.20
2017-12-25T09:08:05.492Z,3.50
2017-12-25T09:10:33.700Z,3.37
2017-12-25T09:13:01.139Z,3.37
2017-12-25T09:15:29.346Z,2.60
2017-12-25T09:17:56.785Z,2.73
2017-12-25T09:20:24.220Z,4.40
2017-12-25T09:22:52.423Z,2.20
2017-12-25T09:25:19.877Z,1.70
2017-12-25T09:27:47.317Z,3.23
2017-12-25T09:30:14.796Z,2.73
2017-12-25T09:32:42.233Z,3.20
2017-12-25T09:35:09.670Z,2.90
2017-12-25T09:37:37.881Z,4.30
2017-12-25T09:40:05.326Z,5.07
2017-12-25T09:42:32.764Z,3.30
2017-12-25T09:45:00.204Z,5.00
2017-12-25T09:47:28.414Z,4.30
2017-12-25T09:49:55.860Z,4.53
2017-12-25T09:52:24.069Z,2.90
2017-12-25T09:54:51.504Z,5.40
2017-12-25T09:57:18.948Z,6.10
2017-12-25T09:59:46.383Z,6.30
2017-12-25T10:02:14.627Z,5.97
2017-12-25T10:04:42.068Z,4.73
2017-12-25T10:07:09.505Z,4.87
2017-12-25T10:09:36.957Z,4.37
2017-12-25T10:12:04.394Z,5.37
2017-12-25T10:14:32.601Z,4.37
2017-12-25T10:17:00.034Z,5.10
2017-12-25T10:19:27.474Z,7.83
2017-12-25T10:21:55.673Z,4.33
2017-12-25T10:24:23.121Z,6.10
2017-12-25T10:26:50.551Z,6.97
2017-12-25T10:29:18.765Z,5.00
2017-12-25T10:31:46.196Z,5.03
2017-12-25T10:34:14.403Z,7.90
2017-12-25T10:36:41.839Z,7.50
2017-12-25T10:39:09.292Z,6.90
2017-12-25T10:41:36.736Z,4.77
2017-12-25T10:44:04.949Z,6.37
2017-12-25T10:46:32.384Z,7.23
2017-12-25T10:48:59.832Z,6.53
2017-12-25T10:51:27.276Z,5.80
2017-12-25T10:53:55.485Z,4.40
2017-12-25T10:56:22.918Z,4.77
2017-12-25T10:58:51.295Z,5.87
2017-12-25T11:01:18.731Z,5.10
2017-12-25T11:03:46.944Z,6.97
2017-12-25T11:06:14.381Z,6.23
2017-12-25T11:08:41.824Z,5.03
2017-12-25T11:11:10.034Z,4.93
2017-12-25T11:13:37.492Z,7.10
2017-12-25T11:16:04.936Z,4.60
2017-12-25T11:18:32.375Z,5.83
2017-12-25T11:21:01.407Z,4.90
2017-12-25T11:23:28.831Z,7.00
2017-12-25T11:25:56.284Z,7.23
2017-12-25T11:28:24.485Z,8.37
2017-12-25T11:30:51.929Z,7.63
2017-12-25T11:33:19.365Z,6.20
2017-12-25T11:35:47.575Z,7.43
2017-12-25T11:38:15.006Z,4.93
2017-12-25T11:40:43.233Z,6.97
2017-12-25T11:43:10.643Z,4.80
2017-12-25T11:45:38.091Z,4.87
2017-12-25T11:48:06.308Z,7.27
2017-12-25T11:50:33.741Z,5.50
2017-12-25T11:53:01.188Z,6.17
2017-12-25T11:55:28.635Z,5.90
2017-12-25T11:57:56.124Z,5.80
2017-12-25T12:00:24.283Z,5.53
2017-12-25T12:02:51.732Z,6.00
2017-12-25T12:05:19.177Z,7.37
2017-12-25T12:07:47.376Z,7.83
2017-12-25T12:10:33.613Z,9.23
2017-12-25T12:13:01.098Z,6.80
2017-12-25T12:15:29.341Z,6.73
2017-12-25T12:17:56.817Z,9.03
2017-12-25T12:20:24.259Z,7.77
2017-12-25T12:22:51.698Z,6.30
2017-12-25T12:25:19.153Z,8.03
2017-12-25T12:27:46.733Z,7.53
2017-12-25T12:30:14.297Z,7.27
2017-12-25T12:32:41.826Z,9.27
2017-12-25T12:35:09.320Z,10.03
2017-12-25T12:37:36.799Z,9.57
2017-12-25T12:40:05.001Z,6.63
2017-12-25T12:42:32.435Z,6.40
2017-12-25T12:44:59.882Z,8.00
2017-12-25T12:47:28.153Z,8.33
2017-12-25T12:49:58.474Z,4.40
2017-12-25T12:52:26.752Z,6.53
2017-12-25T12:54:55.010Z,7.83
2017-12-25T12:57:22.578Z,6.87
2017-12-25T12:59:50.072Z,5.20
2017-12-25T13:02:18.269Z,5.70
2017-12-25T13:04:45.768Z,6.80
2017-12-25T13:07:13.265Z,4.70
2017-12-25T13:09:40.787Z,5.43
2017-12-25T13:12:09.069Z,6.30
2017-12-25T13:19:44.942Z,5.37
2017-12-25T13:25:27.509Z,5.87
2017-12-25T13:27:56.768Z,6.10
2017-12-25T13:30:24.294Z,6.87
2017-12-25T13:32:51.890Z,6.10
2017-12-25T13:35:19.380Z,6.37
2017-12-25T13:37:46.819Z,7.03
2017-12-25T13:40:15.042Z,7.10
2017-12-25T13:42:42.570Z,6.70
2017-12-25T13:45:10.966Z,7.17
2017-12-25T13:47:42.187Z,7.30
2017-12-25T13:50:09.681Z,7.20
2017-12-25T13:52:37.191Z,6.83
2017-12-25T13:55:05.405Z,5.90
2017-12-25T13:57:32.865Z,8.50
2017-12-25T14:00:00.349Z,9.23
2017-12-25T14:02:28.279Z,8.27
2017-12-25T14:04:55.739Z,8.00
2017-12-25T14:07:23.196Z,6.50
2017-12-25T14:09:50.650Z,7.60
2017-12-25T14:12:18.096Z,6.87
2017-12-25T14:14:45.550Z,7.43
2017-12-25T14:17:13.001Z,5.97
2017-12-25T14:19:40.444Z,6.93
2017-12-25T14:22:08.661Z,6.10
2017-12-25T14:24:36.092Z,6.40
2017-12-25T14:27:03.536Z,7.80
2017-12-25T14:29:31.748Z,6.80
2017-12-25T14:31:59.184Z,6.93
2017-12-25T14:34:26.620Z,4.87
2017-12-25T14:36:54.835Z,6.87
2017-12-25T14:39:22.280Z,4.40
2017-12-25T14:41:49.715Z,8.50
2017-12-25T14:44:17.155Z,6.63
2017-12-25T14:46:45.382Z,9.03
2017-12-25T14:49:12.817Z,8.13
2017-12-25T14:51:40.260Z,7.70
2017-12-25T14:54:07.704Z,8.17
2017-12-25T14:56:35.917Z,7.90
2017-12-25T14:59:03.360Z,7.70
2017-12-25T15:01:30.807Z,8.90
2017-12-25T15:03:58.244Z,7.70
2017-12-25T15:06:26.468Z,10.93
2017-12-25T15:08:54.676Z,10.00
2017-12-25T15:11:22.136Z,11.70
2017-12-25T15:13:49.578Z,8.50
2017-12-25T15:16:17.019Z,8.80
2017-12-25T15:18:44.458Z,9.10
2017-12-25T15:21:11.913Z,11.70
2017-12-25T15:23:39.358Z,9.33
2017-12-25T15:26:06.797Z,16.77
2017-12-25T15:28:35.027Z,8.57
2017-12-25T15:31:02.469Z,11.63
2017-12-25T15:33:29.921Z,12.17
2017-12-25T15:35:57.419Z,11.97
2017-12-25T15:38:24.814Z,9.40
2017-12-25T15:40:52.253Z,8.77
2017-12-25T15:43:20.464Z,8.10
2017-12-25T15:45:47.911Z,8.10
2017-12-25T15:48:15.356Z,8.20
2017-12-25T15:50:42.807Z,9.10
2017-12-25T15:53:10.244Z,9.57
2017-12-25T15:55:38.468Z,11.80
2017-12-25T15:58:05.916Z,9.67
2017-12-25T16:00:33.368Z,10.37
2017-12-25T16:03:00.823Z,9.07
2017-12-25T16:05:28.272Z,12.70
2017-12-25T16:07:55.764Z,11.35
2017-12-25T16:10:23.219Z,10.50
2017-12-25T16:12:50.659Z,11.17
2017-12-25T16:15:18.113Z,12.63
2017-12-25T16:17:45.557Z,17.12
2017-12-25T16:20:13.017Z,11.48
2017-12-25T16:22:40.482Z,14.87
2017-12-25T16:25:07.937Z,14.90
2017-12-25T16:27:36.148Z,12.00
2017-12-25T16:30:03.604Z,15.25
2017-12-25T16:32:31.058Z,11.20
2017-12-25T16:34:58.512Z,12.70
2017-12-25T16:37:25.960Z,9.93
2017-12-25T16:39:53.448Z,11.07
2017-12-25T16:42:21.667Z,13.85
2017-12-25T16:44:49.111Z,14.20
2017-12-25T16:47:16.578Z,12.10
2017-12-25T16:49:44.023Z,10.87
2017-12-25T16:52:11.481Z,11.23
2017-12-25T16:54:39.056Z,11.40
2017-12-25T16:57:06.517Z,11.93
2017-12-25T16:59:33.967Z,12.10
2017-12-25T17:02:01.425Z,16.23
2017-12-25T17:04:28.877Z,17.45
2017-12-25T17:06:56.334Z,18.40
2017-12-25T17:09:23.787Z,26.17
2017-12-25T17:11:51.245Z,18.05
2017-12-25T17:14:18.706Z,16.42
2017-12-25T17:16:46.165Z,13.60
2017-12-25T17:19:13.625Z,15.13
2017-12-25T17:21:41.115Z,14.75
2017-12-25T17:24:08.538Z,14.02
2017-12-25T17:26:35.989Z,14.63
2017-12-25T17:29:03.452Z,13.90
2017-12-25T17:31:30.906Z,15.20
2017-12-25T17:33:58.367Z,14.40
2017-12-25T17:36:25.824Z,17.12
2017-12-25T17:38:53.289Z,16.07
2017-12-25T17:41:21.500Z,15.40
2017-12-25T17:43:49.724Z,16.35
2017-12-25T17:46:17.180Z,19.75
2017-12-25T17:48:44.634Z,14.95
2017-12-25T17:51:12.091Z,16.37
2017-12-25T17:53:39.555Z,17.73
2017-12-25T17:56:07.015Z,19.42
2017-12-25T17:58:34.457Z,19.92
2017-12-25T18:01:01.915Z,20.35
2017-12-25T18:03:29.355Z,18.77
2017-12-25T18:05:56.841Z,19.42
2017-12-25T18:08:24.308Z,20.95
2017-12-25T18:10:51.801Z,18.95
2017-12-25T18:13:20.016Z,22.00
2017-12-25T18:15:47.477Z,22.70
2017-12-25T18:18:14.916Z,23.35
2017-12-25T18:20:42.368Z,26.02
2017-12-25T18:23:09.823Z,24.40
2017-12-25T18:25:37.308Z,26.40
2017-12-25T18:28:04.977Z,24.60
2017-12-25T18:30:37.640Z,21.85
2017-12-25T18:33:06.580Z,22.10
2017-12-25T18:35:48.998Z,20.73
2017-12-25T18:38:16.605Z,24.08
2017-12-25T18:40:44.129Z,19.58
2017-12-25T18:43:12.371Z,24.55
2017-12-25T18:45:41.521Z,23.08
2017-12-25T18:48:12.784Z,23.77
2017-12-25T18:51:18.029Z,26.70
2017-12-25T18:56:49.361Z,24.25
2017-12-25T18:59:16.862Z,25.50
2017-12-25T19:01:44.375Z,25.80
2017-12-25T19:04:11.883Z,27.00
2017-12-25T19:06:39.378Z,27.40
2017-12-25T19:09:06.916Z,25.73
2017-12-25T19:11:34.500Z,25.20
2017-12-25T19:14:02.856Z,27.98
2017-12-25T19:16:30.463Z,25.70
2017-12-25T19:18:58.616Z,26.92
2017-12-25T19:21:26.923Z,28.17
2017-12-25T19:23:54.442Z,30.00
2017-12-25T19:26:21.941Z,28.05
2017-12-25T19:28:49.457Z,32.30
2017-12-25T19:31:17.937Z,32.47
2017-12-25T19:33:49.070Z,32.55
2017-12-25T19:36:16.638Z,31.12
2017-12-25T19:38:44.217Z,29.95
2017-12-25T19:41:12.513Z,31.55
2017-12-25T19:43:39.986Z,32.92
2017-12-25T19:46:07.539Z,32.55
2017-12-25T19:48:35.072Z,34.97
2017-12-25T19:51:03.318Z,35.13
2017-12-25T19:53:30.798Z,34.90
2017-12-25T19:55:59.041Z,35.75
2017-12-25T19:58:26.649Z,34.35
2017-12-25T20:00:55.822Z,34.47
2017-12-25T20:03:24.921Z,37.30
2017-12-25T20:05:53.205Z,36.92
2017-12-25T20:08:21.539Z,35.50
2017-12-25T20:10:49.105Z,36.42
2017-12-25T20:13:16.608Z,37.92
2017-12-25T20:15:44.183Z,34.88
2017-12-25T20:18:11.749Z,36.13
2017-12-25T20:20:39.320Z,35.72
2017-12-25T20:23:06.852Z,40.80
2017-12-25T20:25:34.424Z,34.00
2017-12-25T20:28:03.149Z,34.17
2017-12-25T20:30:30.712Z,35.88
2017-12-25T20:32:58.282Z,35.55
2017-12-25T20:35:25.779Z,38.10
2017-12-25T20:37:53.328Z,40.60
2017-12-25T20:40:20.970Z,37.53
2017-12-25T20:42:48.521Z,36.58
2017-12-25T20:45:15.990Z,38.45
2017-12-25T20:47:44.246Z,36.10
2017-12-25T20:50:12.016Z,35.58
2017-12-25T20:52:45.462Z,33.63
2017-12-25T20:55:28.656Z,36.00
2017-12-25T20:57:56.984Z,35.38
2017-12-25T21:00:25.292Z,39.58
2017-12-25T21:02:52.852Z,35.22
2017-12-25T21:05:22.229Z,31.35
2017-12-25T21:07:52.516Z,33.50
2017-12-25T21:10:21.248Z,31.77
2017-12-25T21:12:48.817Z,33.45
2017-12-25T21:15:16.363Z,34.53
2017-12-25T21:17:43.850Z,33.05
2017-12-25T21:20:12.162Z,34.08
2017-12-25T21:22:39.715Z,33.85
2017-12-25T21:25:08.168Z,32.40
2017-12-25T21:27:36.466Z,32.25
2017-12-25T21:30:04.936Z,26.58
2017-12-25T21:32:32.388Z,28.05
2017-12-25T21:34:59.893Z,27.87
2017-12-25T21:37:27.388Z,29.37
2017-12-25T21:39:54.876Z,26.95
2017-12-25T21:42:22.371Z,29.55
2017-12-25T21:44:49.812Z,31.33
2017-12-25T21:47:17.323Z,33.30
2017-12-25T21:49:45.575Z,33.17
2017-12-25T21:52:13.022Z,29.27
2017-12-25T21:54:40.520Z,29.50
2017-12-25T21:57:08.787Z,32.63
2017-12-25T21:59:36.994Z,29.85
2017-12-25T22:02:04.495Z,30.00
2017-12-25T22:04:31.992Z,29.20
2017-12-25T22:07:00.245Z,29.63
2017-12-25T22:09:27.739Z,31.08
2017-12-25T22:11:55.169Z,30.90
2017-12-25T22:14:23.436Z,29.27
2017-12-25T22:16:50.909Z,30.40
2017-12-25T22:19:19.166Z,32.25
2017-12-25T22:21:46.649Z,28.73
2017-12-25T22:24:14.222Z,30.20
2017-12-25T22:26:41.712Z,30.70
2017-12-25T22:29:09.194Z,30.42
2017-12-25T22:31:36.682Z,29.95
2017-12-25T22:34:04.171Z,33.25
2017-12-25T22:36:31.668Z,32.75
2017-12-25T22:38:59.148Z,32.67
2017-12-25T22:41:27.356Z,35.67
2017-12-25T22:43:54.860Z,31.77
2017-12-25T22:46:22.360Z,30.20
2017-12-25T22:48:49.846Z,32.50
2017-12-25T22:51:17.332Z,33.30
2017-12-25T22:53:44.829Z,36.80
2017-12-25T22:56:12.320Z,35.28
2017-12-25T22:58:39.819Z,37.58
2017-12-25T23:01:08.071Z,37.08
2017-12-25T23:03:35.549Z,35.30
2017-12-25T23:06:03.756Z,33.35
2017-12-25T23:08:31.268Z,32.22
2017-12-25T23:10:58.763Z,34.65
2017-12-25T23:13:26.250Z,28.40
2017-12-25T23:15:54.513Z,27.77
2017-12-25T23:18:21.999Z,26.40
2017-12-25T23:20:49.478Z,24.60
2017-12-25T23:23:17.729Z,24.30
2017-12-25T23:25:45.214Z,22.70
2017-12-25T23:28:13.470Z,23.17
2017-12-25T23:30:40.955Z,23.00
2017-12-25T23:33:11.588Z,24.05
2017-12-25T23:35:39.107Z,19.80
2017-12-25T23:38:06.604Z,23.95
2017-12-25T23:40:34.868Z,19.55
2017-12-25T23:43:03.085Z,22.52
2017-12-25T23:45:30.578Z,21.20
2017-12-25T23:47:58.074Z,22.62
2017-12-25T23:50:25.551Z,22.98
2017-12-25T23:52:53.042Z,24.00
2017-12-25T23:55:20.528Z,22.95
2017-12-25T23:57:47.982Z,20.60
